UIO weather

Mariscal Sucre International Airport
Quito, Pichincha Province, Ecuador

Public forecast

Using degrees Celsius for public forecast. Weather courtesy of forecast.io.

Current aviation weather report (METAR) for Mariscal Sucre International Airport

Retrieved 2019/10/16 03:00 UTC (53 minutes ago):

SEQM 160300Z 01004KT 9999 FEW005 SCT100 12/11 Q1028 NOSIG RMK A3036

Aviation forecast (TAF) for Mariscal Sucre International Airport

Forecast is more than 12 hours old.

Retrieved 2019/10/15 06:57 UTC (21 hours ago):

TAF SEQM 150440Z 1506/1606 VRB03KT 9999 SCT005 SCT020 BECMG 1513/1514 SCT023 SCT100 FM151800 35014KT 9999 BKN033 SCT100 FM1523/1524 03004KT SCT005 BKN026 TX25/1519Z TN07/1511Z